Latest Weather Observations for Albury

IDN60801

Issued at 6:05 am EST Thursday 24 July 2014 (issued every 30 minutes, with the page automatically refreshed every 10 minutes)

About weather observations | Map of weather stations | Latest weather observations for NSW | Other Formats
Station Details ID: 072160 Name: ALBURY AIRPORT AWS Lat: -36.07 Lon: 146.95 Height: 163.5 m
Data from the previous 72 hours. | See also: Recent months at Albury
Date/Time
EST
Temp
°C
App
Temp
°C
Dew
Point
Rel
Hum
%
Delta-T
°C
Wind Press
QNH
hPa
Press
MSL
hPa
Rain
since 9 am
mm
Dir
 
Spd
km/h
Gust
km/h
Spd
kts
Gust
kts
24/06:00am 2.6 1.0 2.6 100 0.0 NE 0 0 0 0 1018.9 1019.2 0.0
24/05:30am 2.4 0.8 2.4 100 0.0 NW 0 0 0 0 1019.2 - 0.0
24/05:00am 2.5 0.9 2.5 100 0.0 CALM 0 0 0 0 1019.2 1019.6 0.0
24/04:30am 1.7 -1.2 1.7 100 0.0 N 6 11 3 6 1019.3 - 0.0
24/04:00am 2.5 -0.4 2.5 100 0.0 N 7 9 4 5 1019.2 1019.6 0.0
24/03:30am 2.5 -0.4 2.5 100 0.0 NW 7 11 4 6 1019.1 - 0.0
24/03:00am 1.6 -1.3 1.6 100 0.0 ENE 6 7 3 4 1019.3 1019.7 0.0
24/02:30am 2.2 -0.6 2.2 100 0.0 ENE 6 7 3 4 1019.6 - 0.0
24/02:00am 2.5 -0.2 2.5 100 0.0 E 6 7 3 4 1019.5 1019.9 0.0
24/01:53am 2.7 0.0 2.7 100 0.0 NE 6 7 3 4 1019.5 - 0.0
24/01:34am 2.1 -0.7 2.1 100 0.0 NE 6 7 3 4 1019.5 - 0.0
24/01:30am 1.8 -1.0 1.8 100 0.0 ENE 6 7 3 4 1019.5 - 0.0
24/01:23am 2.2 -0.6 2.2 100 0.0 NE 6 7 3 4 1019.5 - 0.0
24/01:00am 2.6 1.0 2.6 100 0.0 CALM 0 0 0 0 1019.8 1020.2 0.0
24/12:30am 2.7 1.1 2.6 99 0.0 CALM 0 0 0 0 1020.1 - 0.0
24/12:25am 2.8 1.2 2.7 99 0.0 CALM 0 0 0 0 1020.2 - 0.0
24/12:02am 3.5 2.1 3.4 99 0.0 CALM 0 0 0 0 1020.4 - 0.0
24/12:00am 3.4 2.0 3.3 99 0.0 NNW 0 0 0 0 1020.4 1020.8 0.0
 
Date/Time
EST
Temp
°C
App
Temp
°C
Dew
Point
Rel
Hum
%
Delta-T
°C
Wind Press
QNH
hPa
Press
MSL
hPa
Rain
since 9 am
mm
Dir
 
Spd
km/h
Gust
km/h
Spd
kts
Gust
kts
23/11:45pm 3.3 1.8 3.2 99 0.0 CALM 0 0 0 0 1020.6 - 0.0
23/11:30pm 3.6 2.2 3.5 99 0.0 CALM 0 0 0 0 1020.8 - 0.0
23/11:00pm 3.8 2.4 3.7 99 0.0 CALM 0 0 0 0 1021.1 1021.5 0.0
23/10:30pm 3.9 2.6 3.9 100 0.0 CALM 0 0 0 0 1021.4 - 0.0
23/10:23pm 4.0 2.7 4.0 100 0.0 CALM 0 0 0 0 1021.5 - 0.0
23/10:04pm 2.9 1.3 2.6 98 0.1 CALM 0 0 0 0 1021.6 - 0.0
23/10:01pm 3.1 1.6 2.8 98 0.1 CALM 0 0 0 0 1021.6 - 0.0
23/10:00pm 3.2 1.7 2.9 98 0.1 CALM 0 0 0 0 1021.6 1022.0 0.0
23/09:39pm 3.0 1.1 2.6 97 0.2 ENE 2 7 1 4 1021.8 - 0.0
23/09:30pm 2.9 -0.1 2.2 95 0.3 E 7 9 4 5 1021.9 - 0.0
23/09:00pm 3.9 1.2 3.5 97 0.2 NNE 7 9 4 5 1022.0 1022.4 0.0
23/08:30pm 4.9 3.7 4.5 97 0.2 CALM 0 0 0 0 1021.8 - 0.0
23/08:00pm 5.1 3.9 4.5 96 0.3 CALM 0 0 0 0 1021.4 1021.8 0.0
23/07:30pm 5.5 3.8 4.2 91 0.6 NE 2 7 1 4 1021.2 - 0.0
23/07:00pm 7.0 6.0 5.6 91 0.6 CALM 0 0 0 0 1021.1 1021.5 0.0
23/06:30pm 7.5 6.4 5.3 86 1.0 CALM 0 0 0 0 1021.1 - 0.0
23/06:00pm 8.6 7.7 6.1 84 1.1 CALM 0 0 0 0 1020.9 1021.3 0.0
23/05:30pm 9.9 7.8 6.6 80 1.6 E 7 7 4 4 1020.6 - 0.0
23/05:00pm 11.4 9.5 6.5 72 2.3 E 6 9 3 5 1020.5 1020.9 0.0
23/04:30pm 12.3 10.4 6.6 68 2.7 ESE 6 7 3 4 1020.4 - 0.0
23/04:00pm 13.1 11.0 6.7 65 3.1 ESE 7 11 4 6 1020.5 1020.9 0.0
23/03:30pm 13.3 11.1 6.4 63 3.3 ESE 7 9 4 5 1020.6 - 0.0
23/03:00pm 13.8 11.9 6.9 63 3.4 E 6 7 3 4 1020.7 1021.1 0.0
23/02:30pm 13.5 11.7 7.1 65 3.1 SE 6 11 3 6 1020.9 - 0.0
23/02:00pm 12.9 10.8 6.5 65 3.1 SE 7 11 4 6 1021.1 1021.5 0.0
23/01:30pm 12.5 10.2 7.4 71 2.5 SE 9 13 5 7 1021.3 - 0.0
23/01:00pm 11.8 9.4 6.9 72 2.4 SE 9 11 5 6 1021.9 1022.3 0.0
23/12:30pm 11.3 9.1 6.4 72 2.3 ESE 7 11 4 6 1022.7 - 0.0
23/12:00pm 10.6 8.5 5.8 72 2.2 ESE 6 9 3 5 1023.5 1023.8 0.0
23/11:30am 9.5 7.6 4.7 72 2.2 ENE 4 7 2 4 1024.2 - 0.0
23/11:00am 8.3 6.0 4.7 78 1.6 E 6 9 3 5 1024.6 1025.0 0.0
23/10:30am 7.3 4.8 3.9 79 1.5 E 6 9 3 5 1024.9 - 0.0
23/10:00am 7.1 4.9 3.5 78 1.5 E 4 7 2 4 1025.2 1025.6 0.0
23/09:30am 5.8 4.3 3.0 82 1.2 CALM 0 0 0 0 1025.4 - 0.0
23/09:00am 3.4 1.8 2.4 93 0.4 CALM 0 0 0 0 1025.6 1026.0 0.0
23/08:30am 1.8 0.1 1.7 99 0.0 CALM 0 0 0 0 1025.4 - 0.0
23/08:00am 1.2 -0.6 1.2 100 0.0 NNE 0 0 0 0 1025.4 1025.8 0.0
23/07:30am -0.7 -2.8 -0.8 99 0.0 CALM 0 0 0 0 1025.3 - 0.0
23/07:00am -0.2 -2.6 -0.2 100 0.0 NE 2 7 1 4 1024.9 1025.3 0.0
23/06:30am -0.5 -3.7 -0.5 100 0.0 N 6 9 3 5 1024.5 - 0.0
23/06:00am -1.3 -4.6 -1.6 98 0.0 NNW 6 7 3 4 1024.2 1024.6 0.0
23/05:30am -0.7 -2.8 -0.8 99 0.0 CALM 0 6 0 3 1024.1 - 0.0
23/05:00am -1.1 -5.0 -1.4 98 0.1 NW 9 9 5 5 1024.1 1024.5 0.0
23/04:30am -0.1 -2.1 -0.2 99 0.0 CALM 0 0 0 0 1024.0 - 0.0
23/04:00am -0.4 -4.2 -0.5 99 0.0 NNW 9 11 5 6 1024.3 1024.7 0.0
23/03:30am 0.3 -1.7 0.2 99 0.0 CALM 0 0 0 0 1024.2 - 0.0
23/03:00am 0.5 -1.8 0.4 99 0.0 N 2 7 1 4 1024.2 1024.6 0.0
23/02:30am 0.1 -1.9 -0.2 98 0.1 CALM 0 0 0 0 1024.2 - 0.0
23/02:00am 0.4 -1.6 0.1 98 0.1 CALM 0 0 0 0 1024.1 1024.5 0.0
23/01:45am 0.5 -1.5 0.2 98 0.1 CALM 0 0 0 0 1024.1 - 0.0
23/01:30am 0.5 -1.5 0.1 97 0.1 CALM 0 0 0 0 1024.1 - 0.0
23/01:24am 0.6 -1.4 0.2 97 0.1 CALM 0 0 0 0 1024.2 - 0.0
23/01:00am 0.8 -1.1 0.4 97 0.1 CALM 0 4 0 2 1024.5 1024.9 0.0
23/12:30am 0.9 -2.1 0.5 97 0.1 NNW 6 9 3 5 1024.7 - 0.0
23/12:00am 0.9 -1.0 0.3 96 0.2 CALM 0 0 0 0 1024.8 1025.2 0.0
 
Date/Time
EST
Temp
°C
App
Temp
°C
Dew
Point
Rel
Hum
%
Delta-T
°C
Wind Press
QNH
hPa
Press
MSL
hPa
Rain
since 9 am
mm
Dir
 
Spd
km/h
Gust
km/h
Spd
kts
Gust
kts
22/11:30pm 1.6 -0.2 0.9 95 0.3 CALM 0 0 0 0 1025.1 - 0.0
22/11:00pm 1.8 0.0 1.1 95 0.3 CALM 0 0 0 0 1025.1 1025.5 0.0
22/10:30pm 2.0 0.2 1.1 94 0.3 CALM 0 0 0 0 1025.0 - 0.0
22/10:00pm 2.3 0.5 1.3 93 0.4 CALM 0 0 0 0 1024.9 1025.3 0.0
22/09:30pm 2.7 0.9 1.4 91 0.5 CALM 0 0 0 0 1024.7 - 0.0
22/09:00pm 2.9 1.1 1.4 90 0.6 CALM 0 0 0 0 1024.4 1024.8 0.0
22/08:30pm 3.2 1.4 1.1 86 0.8 CALM 0 0 0 0 1024.1 - 0.0
22/08:00pm 4.1 2.5 2.3 88 0.7 CALM 0 0 0 0 1024.0 1024.3 0.0
22/07:30pm 5.2 3.7 2.9 85 1.0 CALM 0 0 0 0 1023.8 - 0.0
22/07:00pm 5.5 4.0 3.2 85 1.0 CALM 0 0 0 0 1023.5 1023.8 0.0
22/06:30pm 7.3 5.5 3.7 78 1.6 N 2 6 1 3 1023.6 - 0.0
22/06:00pm 7.9 6.6 3.9 76 1.7 CALM 0 0 0 0 1023.4 1023.7 0.0
22/05:30pm 9.7 8.4 3.9 67 2.6 CALM 0 4 0 2 1023.3 - 0.0
22/05:00pm 11.9 9.6 4.6 61 3.3 E 6 7 3 4 1023.0 1023.3 0.0
22/04:30pm 12.4 9.5 2.8 52 4.2 ESE 7 9 4 5 1023.1 - 0.0
22/04:00pm 12.9 10.2 3.6 53 4.2 ESE 7 9 4 5 1023.2 1023.5 0.0
22/03:30pm 12.9 10.1 3.3 52 4.3 ESE 7 11 4 6 1023.3 - 0.0
22/03:00pm 13.0 10.5 3.9 54 4.1 SE 6 9 3 5 1023.4 1023.7 0.0
22/02:30pm 12.9 10.6 5.6 61 3.4 SE 7 9 4 5 1023.4 - 0.0
22/02:00pm 12.6 10.3 5.5 62 3.3 SSE 7 13 4 7 1023.6 1023.9 0.0
22/01:30pm 11.9 9.7 5.1 63 3.2 SE 6 7 3 4 1023.9 - 0.0
22/01:00pm 11.3 8.9 4.5 63 3.1 SE 6 7 3 4 1024.2 1024.6 0.0
22/12:30pm 10.7 9.5 4.4 65 2.8 CALM 0 6 0 3 1024.6 - 0.0
22/12:00pm 10.5 8.6 4.9 68 2.5 ENE 4 9 2 5 1025.1 1025.5 0.0
22/11:30am 9.7 8.4 3.9 67 2.6 CALM 0 0 0 0 1025.6 - 0.0
22/11:00am 8.9 7.1 3.7 70 2.3 E 2 6 1 3 1026.0 1026.4 0.0
22/10:30am 6.7 4.3 2.4 74 1.8 SSE 4 6 2 3 1026.3 - 0.0
22/10:00am 6.7 5.1 2.6 75 1.7 CALM 0 0 0 0 1026.3 1026.7 0.0
22/09:30am 5.7 4.2 2.9 82 1.2 CALM 0 0 0 0 1026.2 - 0.0
22/09:00am 3.3 1.6 1.7 89 0.6 CALM 0 0 0 0 1026.2 1026.6 0.2
22/08:30am 1.9 -1.0 1.3 96 0.2 NNW 6 7 3 4 1026.1 - 0.2
22/08:00am 0.8 -1.4 0.8 100 0.0 NE 2 6 1 3 1025.7 1026.1 0.0
22/07:30am -0.6 -3.8 -0.7 99 0.0 E 6 7 3 4 1025.7 - 0.0
22/07:00am -0.6 -3.1 -0.7 99 0.0 NW 2 6 1 3 1025.4 1025.8 0.0
22/06:30am -1.1 -3.3 -1.4 98 0.1 CALM 0 0 0 0 1024.8 - 0.0
22/06:00am -0.6 -2.7 -0.9 98 0.1 CALM 0 6 0 3 1024.5 1024.9 0.0
22/05:30am -0.4 -3.6 -0.7 98 0.1 N 6 7 3 4 1024.5 - 0.0
22/05:00am -0.2 -3.6 -0.5 98 0.1 W 7 9 4 5 1024.5 1024.9 0.0
22/04:30am 0.4 -2.9 0.1 98 0.1 N 7 11 4 6 1024.2 - 0.0
22/04:00am 0.3 -1.7 -0.3 96 0.2 CALM 0 0 0 0 1024.2 1024.6 0.0
22/03:30am 0.9 -2.1 0.6 98 0.1 NNW 6 7 3 4 1024.5 - 0.0
22/03:00am 0.8 -2.5 0.4 97 0.1 N 7 9 4 5 1024.4 1024.8 0.0
22/02:30am 0.7 -1.3 0.0 95 0.3 CALM 0 4 0 2 1024.5 - 0.0
22/02:00am 1.0 -0.9 0.4 96 0.2 CALM 0 2 0 1 1024.5 1024.9 0.0
22/01:30am 2.2 -0.3 1.8 97 0.2 E 4 7 2 4 1024.6 - 0.0
22/01:00am 1.7 -0.8 1.3 97 0.2 E 4 7 2 4 1024.5 1024.9 0.0
22/12:30am 1.4 -1.6 0.8 96 0.2 N 6 7 3 4 1024.6 - 0.0
22/12:00am 2.4 0.7 2.0 97 0.2 CALM 0 0 0 0 1024.6 1025.0 0.0
 
Date/Time
EST
Temp
°C
App
Temp
°C
Dew
Point
Rel
Hum
%
Delta-T
°C
Wind Press
QNH
hPa
Press
MSL
hPa
Rain
since 9 am
mm
Dir
 
Spd
km/h
Gust
km/h
Spd
kts
Gust
kts
21/11:30pm 2.7 0.7 2.1 96 0.2 NE 2 7 1 4 1024.7 - 0.0
21/11:00pm 2.7 1.0 2.1 96 0.2 CALM 0 0 0 0 1024.7 1025.1 0.0
21/10:30pm 3.6 2.1 2.9 95 0.3 CALM 0 0 0 0 1024.8 - 0.0
21/10:00pm 3.8 1.1 2.9 94 0.4 NNW 6 9 3 5 1024.8 1025.2 0.0
21/09:30pm 4.1 2.3 3.2 94 0.4 N 2 7 1 4 1024.7 - 0.0
21/09:00pm 3.8 1.5 2.8 93 0.4 SSW 4 6 2 3 1024.7 1025.1 0.0
21/08:30pm 4.1 2.6 3.1 93 0.4 CALM 0 0 0 0 1024.7 - 0.0
21/08:00pm 4.9 3.5 3.7 92 0.5 CALM 0 6 0 3 1024.6 1025.0 0.0
21/07:30pm 6.0 4.8 4.5 90 0.7 CALM 0 0 0 0 1024.5 - 0.0
21/07:00pm 6.9 5.8 5.1 88 0.8 CALM 0 0 0 0 1024.3 1024.7 0.0
21/06:30pm 7.1 5.7 5.4 89 0.8 NE 2 6 1 3 1024.1 - 0.0
21/06:00pm 7.3 5.9 5.3 87 0.9 E 2 6 1 3 1023.9 1024.2 0.0
21/05:30pm 8.8 7.8 5.4 79 1.5 CALM 0 0 0 0 1023.8 - 0.0
21/05:00pm 9.8 7.5 5.6 75 1.9 S 7 9 4 5 1023.8 1024.1 0.0
21/04:30pm 10.4 8.2 5.2 70 2.4 SSE 6 7 3 4 1023.9 - 0.0
21/04:00pm 11.0 8.6 5.1 67 2.7 SSE 7 7 4 4 1023.9 1024.2 0.0
21/03:30pm 11.4 8.9 3.9 60 3.4 SSE 6 7 3 4 1023.9 - 0.0
21/03:00pm 12.0 9.5 4.0 58 3.6 E 6 11 3 6 1023.8 1024.1 0.0
21/02:30pm 12.8 10.9 4.8 58 3.7 NE 4 9 2 5 1023.9 - 0.0
21/02:00pm 11.9 9.7 5.3 64 3.1 S 6 9 3 5 1024.1 1024.5 0.0
21/01:30pm 11.2 8.6 6.3 72 2.3 S 9 13 5 7 1024.4 - 0.0
21/01:00pm 10.8 8.1 5.6 70 2.4 SE 9 11 5 6 1024.8 1025.2 0.0
21/12:30pm 9.9 7.7 5.3 73 2.1 SE 6 9 3 5 1025.3 - 0.0
21/12:00pm 9.4 6.6 5.2 75 1.9 ESE 9 11 5 6 1025.7 1026.1 0.0
21/11:30am 8.9 6.5 5.1 77 1.7 SSE 7 11 4 6 1026.3 - 0.0
21/11:00am 7.6 6.3 4.2 79 1.5 CALM 0 0 0 0 1026.6 1027.0 0.0
21/10:30am 6.7 5.1 4.5 86 1.0 SE 2 9 1 5 1026.9 - 0.0
21/10:00am 5.1 2.7 4.4 95 0.3 SSE 6 7 3 4 1027.1 1027.5 0.0
21/09:30am 4.1 2.4 4.0 99 0.0 SE 2 6 1 3 1027.1 - 0.0
21/09:00am 3.4 1.6 3.4 100 0.0 N 2 6 1 3 1027.1 1027.5 0.0
21/08:30am 2.5 0.5 2.5 100 0.0 N 2 6 1 3 1027.1 - 0.0
21/08:00am 1.7 0.0 1.7 100 0.0 CALM 0 0 0 0 1027.1 1027.5 0.0
21/07:30am 1.1 -1.9 1.1 100 0.0 NNE 6 6 3 3 1026.9 - 0.0
21/07:00am 1.2 -0.6 1.2 100 0.0 CALM 0 6 0 3 1026.8 1027.2 0.0
21/06:30am 1.1 -1.9 1.1 100 0.0 N 6 7 3 4 1026.6 - 0.0

Other Formats:

Comma delimited format used in spreadsheet applications
http://www.bom.gov.au/fwo/IDN60801/IDN60801.95896.axf

JavaScript Object Notation format (JSON) in row-major order
http://www.bom.gov.au/fwo/IDN60801/IDN60801.95896.json